Time;durP1;ratioP1;P1;durP2;ratioP2;P2;SDS_P1;SDS_P2;PMS_P1;PMS_P2;Temp;Humidity;BMP_temperature;BMP_pressure;BME280_temperature;BME280_humidity;BME280_pressure;Samples;Min_cycle;Max_cycle;Signal;HPM_P1;HPM_P2
2021/03/05 00:01:24;;;;;;;2.20;1.55;;;18.50;51.40;;;;;;5106794;28;20197;-57
2021/03/05 00:03:50;;;;;;;2.63;1.00;;;18.50;51.30;;;;;;5106656;28;20227;-56
2021/03/05 00:06:15;;;;;;;1.65;1.20;;;18.40;51.20;;;;;;5106434;28;20572;-57
2021/03/05 00:08:41;;;;;;;2.88;1.38;;;18.40;51.20;;;;;;5106648;28;20169;-52
2021/03/05 00:11:06;;;;;;;3.20;1.40;;;18.40;51.30;;;;;;5106402;28;20173;-56
2021/03/05 00:13:32;;;;;;;2.95;1.60;;;18.40;51.30;;;;;;5106754;28;20235;-57
2021/03/05 00:15:58;;;;;;;2.80;1.70;;;18.40;51.30;;;;;;5106918;28;20177;-54
2021/03/05 00:18:23;;;;;;;2.88;1.30;;;18.40;51.30;;;;;;5106956;28;20177;-55
2021/03/05 00:20:50;;;;;;;1.75;1.38;;;18.30;51.30;;;;;;5106277;28;20165;-51
2021/03/05 00:23:16;;;;;;;1.45;1.20;;;18.30;51.40;;;;;;5106773;28;20573;-56
2021/03/05 00:25:41;;;;;;;3.17;1.67;;;18.30;51.40;;;;;;5106196;28;20774;-56
2021/03/05 00:28:07;;;;;;;2.05;1.30;;;18.30;51.30;;;;;;5106055;28;21062;-55
2021/03/05 00:30:36;;;;;;;2.63;1.30;;;18.30;51.30;;;;;;5105697;28;20180;-53
2021/03/05 00:33:05;;;;;;;2.10;1.55;;;18.30;51.30;;;;;;5106171;28;20215;-52
2021/03/05 00:35:30;;;;;;;3.03;1.40;;;18.30;51.30;;;;;;5105750;28;20185;-55
2021/03/05 00:37:56;;;;;;;2.40;1.67;;;18.20;51.30;;;;;;5106428;28;20608;-54
2021/03/05 00:40:22;;;;;;;2.30;1.40;;;18.20;51.30;;;;;;5106090;28;20189;-59
2021/03/05 00:42:48;;;;;;;2.60;1.60;;;18.20;51.30;;;;;;5106190;28;20195;-59
2021/03/05 00:45:15;;;;;;;2.00;1.40;;;18.20;51.30;;;;;;5106157;28;20185;-58
2021/03/05 00:47:41;;;;;;;1.67;1.40;;;18.20;51.30;;;;;;5106119;28;20192;-58
2021/03/05 00:50:08;;;;;;;1.98;1.50;;;18.20;51.20;;;;;;5106088;28;20200;-59
2021/03/05 00:52:33;;;;;;;1.98;1.38;;;18.20;51.30;;;;;;5105973;28;20317;-60
2021/03/05 00:54:59;;;;;;;2.55;1.55;;;18.10;51.20;;;;;;5106079;28;20995;-59
2021/03/05 00:57:24;;;;;;;2.45;1.65;;;18.10;51.20;;;;;;5105172;28;20180;-57
2021/03/05 00:59:50;;;;;;;1.92;1.45;;;18.10;51.10;;;;;;5105301;28;20173;-56
2021/03/05 01:02:16;;;;;;;1.85;1.25;;;18.00;51.10;;;;;;5105724;28;20710;-51
2021/03/05 01:04:41;;;;;;;1.65;1.30;;;18.10;51.10;;;;;;5105305;28;20169;-57
2021/03/05 01:07:07;;;;;;;2.38;1.40;;;18.10;51.20;;;;;;5105036;28;20209;-56
2021/03/05 01:09:33;;;;;;;1.52;1.30;;;18.10;51.10;;;;;;5105575;28;20962;-53
2021/03/05 01:11:58;;;;;;;2.70;1.73;;;18.10;51.10;;;;;;5105325;28;20176;-53
2021/03/05 01:14:24;;;;;;;2.22;1.40;;;18.00;51.10;;;;;;5105537;28;20238;-56
2021/03/05 01:16:49;;;;;;;2.30;1.60;;;18.00;51.70;;;;;;5105353;28;20177;-56
2021/03/05 01:19:15;;;;;;;2.75;1.65;;;18.00;51.00;;;;;;5104963;28;20278;-59
2021/03/05 01:21:41;;;;;;;1.73;1.40;;;18.00;51.00;;;;;;5105043;28;20206;-56
2021/03/05 01:24:08;;;;;;;2.05;1.42;;;18.00;51.00;;;;;;5105007;28;20234;-54
2021/03/05 01:26:33;;;;;;;2.40;1.58;;;18.00;51.10;;;;;;5105174;28;20292;-54
2021/03/05 01:28:59;;;;;;;2.30;1.73;;;18.00;51.00;;;;;;5105362;28;20326;-55
2021/03/05 01:31:25;;;;;;;2.05;1.67;;;18.00;51.00;;;;;;5104786;28;20167;-55
2021/03/05 01:33:50;;;;;;;1.98;1.30;;;17.90;50.90;;;;;;5104750;28;20170;-55
2021/03/05 01:36:16;;;;;;;3.65;1.70;;;17.90;50.90;;;;;;5104879;28;20648;-55
2021/03/05 01:38:41;;;;;;;2.72;1.60;;;18.00;50.90;;;;;;5104617;28;20702;-55
2021/03/05 01:41:07;;;;;;;2.47;1.70;;;17.90;50.90;;;;;;5104617;28;20173;-57
2021/03/05 01:43:34;;;;;;;1.73;1.50;;;17.90;50.90;;;;;;5104984;28;20169;-59
2021/03/05 01:45:59;;;;;;;2.25;1.70;;;17.90;50.80;;;;;;5104707;28;20581;-58
2021/03/05 01:48:25;;;;;;;2.35;1.58;;;17.90;50.90;;;;;;5104705;28;20173;-59
2021/03/05 01:50:53;;;;;;;1.90;1.67;;;17.90;50.90;;;;;;5104538;28;20170;-56
2021/03/05 01:53:19;;;;;;;1.88;1.60;;;17.90;50.80;;;;;;5105063;28;20173;-56
2021/03/05 01:55:45;;;;;;;1.83;1.73;;;17.80;50.80;;;;;;5104684;28;20622;-57
2021/03/05 01:58:10;;;;;;;2.08;1.52;;;17.80;50.70;;;;;;5104720;28;20211;-57
2021/03/05 02:00:43;;;;;;;2.65;1.63;;;17.80;50.80;;;;;;5086472;28;20638;-55
2021/03/05 02:03:09;;;;;;;2.00;1.52;;;17.80;50.80;;;;;;5104464;28;20173;-53
2021/03/05 02:05:36;;;;;;;1.92;1.40;;;17.80;50.80;;;;;;5104394;28;20250;-52
2021/03/05 02:08:01;;;;;;;2.30;1.60;;;17.80;50.80;;;;;;5104401;28;20200;-53
2021/03/05 02:10:27;;;;;;;2.15;1.90;;;17.80;50.70;;;;;;5104375;28;20215;-56
2021/03/05 02:12:52;;;;;;;1.73;1.63;;;17.70;50.70;;;;;;5104370;28;20173;-57
2021/03/05 02:15:18;;;;;;;1.63;1.50;;;17.70;50.70;;;;;;5104438;28;20559;-55
2021/03/05 02:18:20;;;;;;;1.77;1.50;;;17.70;50.70;;;;;;5086263;28;20181;-54
2021/03/05 02:21:26;;;;;;;2.47;1.52;;;17.70;50.70;;;;;;5089007;28;20231;-57
2021/03/05 02:24:14;;;;;;;1.63;1.42;;;17.70;50.70;;;;;;5092902;28;20185;-55
2021/03/05 02:26:54;;;;;;;1.73;1.42;;;17.70;50.70;;;;;;5104099;28;20204;-59
2021/03/05 02:29:29;;;;;;;1.90;1.50;;;17.70;50.70;;;;;;5104415;28;20233;-56
2021/03/05 02:31:57;;;;;;;3.67;1.67;;;17.70;50.70;;;;;;5086387;28;20169;-51
2021/03/05 02:34:30;;;;;;;1.50;1.40;;;17.70;50.70;;;;;;5086186;28;20169;-54
2021/03/05 02:37:05;;;;;;;2.15;1.52;;;17.60;50.70;;;;;;5104413;28;20183;-51
2021/03/05 02:39:38;;;;;;;2.10;1.40;;;17.60;50.60;;;;;;5086688;28;20230;-57
2021/03/05 02:42:05;;;;;;;2.28;1.45;;;17.60;50.60;;;;;;5085526;28;20169;-55
2021/03/05 02:44:32;;;;;;;1.65;1.55;;;17.60;50.60;;;;;;5103827;28;20533;-55
2021/03/05 02:47:05;;;;;;;1.50;1.40;;;17.60;50.60;;;;;;5086021;28;20254;-56
2021/03/05 02:49:32;;;;;;;1.65;1.30;;;17.60;50.60;;;;;;5103830;28;20173;-56
2021/03/05 02:52:01;;;;;;;1.80;1.42;;;17.60;50.70;;;;;;5087711;28;20698;-54
2021/03/05 02:54:27;;;;;;;1.65;1.55;;;17.60;50.60;;;;;;5090187;28;20739;-52
2021/03/05 02:56:53;;;;;;;2.80;1.75;;;17.60;50.60;;;;;;5090038;28;20520;-53
2021/03/05 02:59:18;;;;;;;2.40;1.85;;;17.50;50.60;;;;;;5089618;28;20657;-53
2021/03/05 03:01:46;;;;;;;1.50;1.40;;;17.60;50.60;;;;;;5089985;28;20345;-54
2021/03/05 03:04:11;;;;;;;2.03;1.73;;;17.50;50.60;;;;;;5107878;28;20169;-53
2021/03/05 03:06:37;;;;;;;2.08;1.67;;;17.50;50.50;;;;;;5089478;28;20223;-54
2021/03/05 03:09:03;;;;;;;1.95;1.80;;;17.50;50.50;;;;;;5107431;28;20173;-53
2021/03/05 03:11:29;;;;;;;1.92;1.30;;;17.50;50.50;;;;;;5107855;28;20526;-56
2021/03/05 03:13:54;;;;;;;2.75;1.83;;;17.50;50.50;;;;;;5089618;28;20188;-57
2021/03/05 03:16:20;;;;;;;2.00;1.80;;;17.50;50.50;;;;;;5089550;28;20201;-53
2021/03/05 03:18:46;;;;;;;1.50;1.38;;;17.50;50.50;;;;;;5107019;28;20173;-57
2021/03/05 03:21:12;;;;;;;2.47;1.55;;;17.50;50.50;;;;;;5089400;28;20226;-56
2021/03/05 03:23:39;;;;;;;2.10;1.90;;;17.50;50.50;;;;;;5089473;28;20630;-54
2021/03/05 03:26:05;;;;;;;2.63;1.75;;;17.40;50.40;;;;;;5106997;28;20197;-58
2021/03/05 03:28:30;;;;;;;2.65;1.60;;;17.40;50.50;;;;;;5088794;28;20180;-54
2021/03/05 03:30:56;;;;;;;1.88;1.75;;;17.40;50.40;;;;;;5088963;28;20181;-52
2021/03/05 03:33:22;;;;;;;2.10;1.67;;;17.40;50.40;;;;;;5107358;28;20177;-52
2021/03/05 03:35:47;;;;;;;1.67;1.58;;;17.40;50.40;;;;;;5107172;28;20177;-51
2021/03/05 03:38:13;;;;;;;1.50;1.40;;;17.40;50.50;;;;;;5107357;28;20550;-56
2021/03/05 03:40:40;;;;;;;1.95;1.73;;;17.40;50.30;;;;;;5106777;28;20226;-57
2021/03/05 03:43:05;;;;;;;1.70;1.40;;;17.40;50.40;;;;;;5107263;28;20264;-57
2021/03/05 03:45:31;;;;;;;1.40;1.30;;;17.30;50.30;;;;;;5106835;28;20293;-50
2021/03/05 03:47:57;;;;;;;1.38;1.27;;;17.30;50.30;;;;;;5089197;28;20610;-56
2021/03/05 03:50:28;;;;;;;1.55;1.45;;;17.30;50.30;;;;;;5088895;28;20176;-57
2021/03/05 03:52:54;;;;;;;1.80;1.67;;;17.30;50.30;;;;;;5106881;28;20200;-55
2021/03/05 03:55:20;;;;;;;1.90;1.80;;;17.30;50.30;;;;;;5088562;28;20650;-53
2021/03/05 03:57:46;;;;;;;1.48;1.38;;;17.30;50.30;;;;;;5088397;28;20181;-53
2021/03/05 04:00:14;;;;;;;1.55;1.30;;;17.20;50.30;;;;;;5106520;28;20169;-56
2021/03/05 04:02:39;;;;;;;1.88;1.75;;;17.20;50.20;;;;;;5106227;28;20645;-53
2021/03/05 04:05:10;;;;;;;1.98;1.73;;;17.20;50.20;;;;;;5088338;28;20177;-55
2021/03/05 04:07:37;;;;;;;1.70;1.60;;;17.20;50.30;;;;;;5088027;28;20581;-54
2021/03/05 04:10:03;;;;;;;1.50;1.40;;;17.20;50.20;;;;;;5106371;28;20201;-50
2021/03/05 04:12:28;;;;;;;2.17;1.40;;;17.20;50.30;;;;;;5106392;28;20638;-54
2021/03/05 04:14:54;;;;;;;1.30;1.20;;;17.20;50.20;;;;;;5088189;28;20165;-50
2021/03/05 04:17:20;;;;;;;1.67;1.58;;;17.20;50.20;;;;;;5106400;28;20181;-53
2021/03/05 04:19:46;;;;;;;1.65;1.20;;;17.20;50.20;;;;;;5106402;28;20589;-56
2021/03/05 04:22:12;;;;;;;1.55;1.42;;;17.20;50.20;;;;;;5088170;28;20204;-55
2021/03/05 04:24:38;;;;;;;1.70;1.42;;;17.20;50.20;;;;;;5106092;28;20173;-55
2021/03/05 04:27:09;;;;;;;2.10;1.77;;;17.10;50.20;;;;;;5105935;28;20562;-53
2021/03/05 04:29:35;;;;;;;1.85;1.45;;;17.10;50.20;;;;;;5106354;28;20207;-52
2021/03/05 04:32:00;;;;;;;1.80;1.15;;;17.10;50.20;;;;;;5106020;28;20582;-53
2021/03/05 04:34:26;;;;;;;1.70;1.60;;;17.10;50.20;;;;;;5105891;28;20188;-53
2021/03/05 04:36:52;;;;;;;1.38;1.27;;;17.10;50.10;;;;;;5106043;28;20649;-52
2021/03/05 04:39:18;;;;;;;1.40;1.30;;;17.10;50.20;;;;;;5087751;28;20209;-52
2021/03/05 04:41:43;;;;;;;1.42;1.33;;;17.10;50.20;;;;;;5105998;28;20270;-56
2021/03/05 04:44:09;;;;;;;3.15;1.65;;;17.00;50.10;;;;;;5105769;28;20169;-56
2021/03/05 04:46:34;;;;;;;1.50;1.40;;;17.10;50.10;;;;;;5105778;28;20768;-53
2021/03/05 04:49:00;;;;;;;1.95;1.48;;;17.10;50.10;;;;;;5105555;28;20566;-54
2021/03/05 04:51:25;;;;;;;1.40;1.30;;;17.00;50.10;;;;;;5105799;28;20168;-54
2021/03/05 04:53:51;;;;;;;1.60;1.50;;;17.00;50.10;;;;;;5105635;28;20176;-52
2021/03/05 04:56:16;;;;;;;1.40;1.27;;;17.00;50.10;;;;;;5105801;28;20259;-58
2021/03/05 04:58:42;;;;;;;2.63;1.50;;;17.00;50.10;;;;;;5105616;28;20665;-57
2021/03/05 05:01:08;;;;;;;1.45;1.30;;;17.00;50.10;;;;;;5105556;28;21000;-57
2021/03/05 05:03:33;;;;;;;1.73;1.52;;;17.00;50.10;;;;;;5087519;28;20181;-55
2021/03/05 05:05:59;;;;;;;1.45;1.35;;;17.00;50.20;;;;;;5105655;28;20292;-56
2021/03/05 05:08:24;;;;;;;1.73;1.35;;;17.00;50.20;;;;;;5105337;28;20239;-54
2021/03/05 05:10:50;;;;;;;1.33;1.23;;;17.00;50.10;;;;;;5105264;28;20177;-56
2021/03/05 05:13:15;;;;;;;1.52;1.20;;;17.00;50.10;;;;;;5105204;28;20230;-55
2021/03/05 05:15:41;;;;;;;1.35;1.23;;;16.90;50.10;;;;;;5104984;28;20173;-57
2021/03/05 05:18:06;;;;;;;1.55;1.42;;;17.00;50.20;;;;;;5105738;28;20180;-55
2021/03/05 05:20:32;;;;;;;1.70;1.60;;;16.90;50.10;;;;;;5105269;28;20177;-52
2021/03/05 05:22:58;;;;;;;1.65;1.50;;;16.90;50.10;;;;;;5104906;28;20173;-57
2021/03/05 05:25:23;;;;;;;1.55;1.45;;;16.90;50.10;;;;;;5105126;28;20184;-56
2021/03/05 05:27:49;;;;;;;1.40;1.30;;;16.90;50.10;;;;;;5105542;28;20185;-55
2021/03/05 05:30:15;;;;;;;1.60;1.50;;;16.90;50.10;;;;;;5105218;28;20914;-55
2021/03/05 05:32:40;;;;;;;1.95;1.13;;;16.90;50.10;;;;;;5105270;28;20269;-53
2021/03/05 05:35:07;;;;;;;2.72;1.30;;;16.90;50.00;;;;;;5104550;28;20181;-55
2021/03/05 05:37:32;;;;;;;1.73;1.50;;;16.90;50.10;;;;;;5104815;28;20191;-53
2021/03/05 05:39:58;;;;;;;2.13;1.60;;;16.80;50.70;;;;;;5086385;28;20169;-55
2021/03/05 05:42:23;;;;;;;1.50;1.40;;;16.80;50.00;;;;;;5105042;28;20199;-56
2021/03/05 05:44:49;;;;;;;1.55;1.20;;;16.80;50.00;;;;;;5086749;28;20677;-59
2021/03/05 05:47:16;;;;;;;1.58;1.40;;;16.80;50.10;;;;;;5104346;28;20204;-56
2021/03/05 05:49:42;;;;;;;1.42;1.33;;;16.80;50.10;;;;;;5104369;28;20945;-54
2021/03/05 05:52:08;;;;;;;1.58;1.23;;;16.80;50.10;;;;;;5104652;28;20187;-58
2021/03/05 05:54:34;;;;;;;1.83;1.30;;;16.80;50.00;;;;;;5086615;28;20860;-56
2021/03/05 05:57:00;;;;;;;1.48;1.38;;;16.80;50.10;;;;;;5086619;28;20534;-53
2021/03/05 05:59:26;;;;;;;1.75;1.63;;;16.80;50.00;;;;;;5104695;28;20181;-54
2021/03/05 06:01:53;;;;;;;1.50;1.30;;;16.80;50.00;;;;;;5104162;28;20173;-49
2021/03/05 06:04:18;;;;;;;2.47;1.45;;;16.80;50.10;;;;;;5104646;28;20622;-56
2021/03/05 06:06:44;;;;;;;1.50;1.40;;;16.80;50.00;;;;;;5086283;28;20213;-54
2021/03/05 06:09:09;;;;;;;2.17;1.40;;;16.80;50.10;;;;;;5086383;28;20261;-54
2021/03/05 06:11:36;;;;;;;1.50;1.40;;;16.80;50.10;;;;;;5103907;28;20243;-50
2021/03/05 06:14:12;;;;;;;1.50;1.38;;;16.90;50.40;;;;;;5104202;28;20276;-55
2021/03/05 06:16:57;;;;;;;1.67;1.17;;;17.00;50.30;;;;;;5104620;28;20173;-58
2021/03/05 06:19:24;;;;;;;1.25;1.00;;;17.20;50.10;;;;;;5104138;28;20177;-55
2021/03/05 06:21:50;;;;;;;1.73;1.05;;;17.40;49.90;;;;;;5104628;28;20188;-54
2021/03/05 06:24:16;;;;;;;1.63;1.10;;;17.60;49.50;;;;;;5104145;28;20169;-55
2021/03/05 06:26:52;;;;;;;1.48;1.00;;;17.80;49.30;;;;;;5107012;28;20261;-57
2021/03/05 06:29:26;;;;;;;1.10;1.00;;;18.00;49.00;;;;;;5108655;28;20280;-53
2021/03/05 06:31:53;;;;;;;1.17;1.08;;;18.10;48.70;;;;;;5108330;28;20176;-52
2021/03/05 06:34:19;;;;;;;1.05;1.00;;;18.20;48.50;;;;;;5108380;28;20172;-56
2021/03/05 06:36:44;;;;;;;0.98;0.98;;;18.20;48.40;;;;;;5108520;28;20169;-52
2021/03/05 06:39:10;;;;;;;1.05;0.95;;;18.40;48.30;;;;;;5108558;28;20697;-55
2021/03/05 06:41:36;;;;;;;1.10;1.00;;;18.40;48.20;;;;;;5108615;28;20177;-55
2021/03/05 06:44:05;;;;;;;0.90;0.90;;;18.40;48.20;;;;;;5108222;28;20619;-56
2021/03/05 06:46:35;;;;;;;1.08;0.90;;;18.50;48.10;;;;;;5108466;28;20217;-57
2021/03/05 06:49:05;;;;;;;0.80;0.80;;;18.60;48.00;;;;;;5108162;28;20170;-56
2021/03/05 06:51:30;;;;;;;1.35;1.25;;;18.60;47.80;;;;;;5108155;28;20566;-58
2021/03/05 06:54:02;;;;;;;1.25;1.10;;;18.70;47.70;;;;;;5107616;28;20177;-53
2021/03/05 06:56:29;;;;;;;1.00;0.90;;;18.70;47.70;;;;;;5107946;28;20193;-57
2021/03/05 06:58:59;;;;;;;0.80;0.80;;;18.70;47.60;;;;;;5107811;28;20198;-54
2021/03/05 07:01:24;;;;;;;1.02;0.95;;;18.70;47.80;;;;;;5107946;28;20264;-57
2021/03/05 07:04:10;;;;;;;1.13;1.00;;;18.60;47.80;;;;;;5107866;28;20239;-55
2021/03/05 07:06:35;;;;;;;0.90;0.90;;;18.50;48.00;;;;;;5107812;28;20217;-53
2021/03/05 07:09:02;;;;;;;1.20;1.10;;;18.40;48.10;;;;;;5107288;28;20208;-58
2021/03/05 07:11:38;;;;;;;1.23;0.98;;;18.30;48.10;;;;;;5089741;28;20646;-55
2021/03/05 07:14:05;;;;;;;1.20;0.88;;;18.20;48.30;;;;;;5107795;28;20757;-52
2021/03/05 07:16:41;;;;;;;0.90;0.90;;;18.10;48.50;;;;;;5107376;28;20262;-50
2021/03/05 07:19:07;;;;;;;0.80;0.77;;;18.00;48.60;;;;;;5089431;28;20180;-58
2021/03/05 07:21:36;;;;;;;0.82;0.80;;;18.00;48.80;;;;;;5107779;28;20263;-58
2021/03/05 07:24:02;;;;;;;1.95;1.10;;;18.00;48.80;;;;;;5107885;28;20179;-55
2021/03/05 07:26:29;;;;;;;0.93;0.93;;;17.90;48.90;;;;;;5089603;28;20200;-59
2021/03/05 07:28:55;;;;;;;1.13;0.88;;;17.90;48.90;;;;;;5089458;28;20170;-56
2021/03/05 07:31:23;;;;;;;0.90;0.90;;;18.00;49.00;;;;;;5089545;28;20184;-56
2021/03/05 07:33:54;;;;;;;1.15;0.90;;;18.00;48.90;;;;;;5089174;28;20577;-58
2021/03/05 07:36:20;;;;;;;1.27;0.93;;;17.90;49.00;;;;;;5088586;28;20622;-51
2021/03/05 07:38:50;;;;;;;1.40;1.30;;;17.90;49.00;;;;;;5088101;28;20171;-58
2021/03/05 07:41:20;;;;;;;1.63;1.17;;;17.90;49.00;;;;;;5088990;28;20179;-55
2021/03/05 07:43:46;;;;;;;1.25;1.15;;;17.80;49.10;;;;;;5089067;28;20209;-57
2021/03/05 07:46:12;;;;;;;1.60;1.38;;;17.80;49.10;;;;;;5088944;28;20287;-61
2021/03/05 07:48:38;;;;;;;1.27;1.17;;;17.80;49.20;;;;;;5106970;28;20184;-64
2021/03/05 07:51:04;;;;;;;1.23;1.00;;;17.90;49.30;;;;;;5106855;28;20204;-62
2021/03/05 07:53:29;;;;;;;1.20;1.02;;;17.90;49.30;;;;;;5088192;28;20278;-61
2021/03/05 07:55:55;;;;;;;1.75;1.20;;;18.00;49.30;;;;;;5106636;28;20170;-62
2021/03/05 07:58:44;;;;;;;7.25;1.90;;;18.00;49.50;;;;;;5106747;28;20737;-62
2021/03/05 08:01:09;;;;;;;3.47;1.30;;;18.00;49.60;;;;;;5106557;28;20233;-65
2021/03/05 08:03:54;;;;;;;2.50;1.27;;;18.00;49.70;;;;;;5107220;28;20181;-63
2021/03/05 08:06:29;;;;;;;3.35;1.65;;;18.00;49.70;;;;;;5106594;28;20200;-64
2021/03/05 08:09:08;;;;;;;2.55;1.77;;;18.00;49.80;;;;;;5106654;28;20200;-61
2021/03/05 08:11:38;;;;;;;2.65;1.40;;;18.00;50.00;;;;;;5106760;28;20180;-61
2021/03/05 08:14:19;;;;;;;3.92;1.42;;;18.00;50.10;;;;;;5106264;28;20222;-62
2021/03/05 08:16:48;;;;;;;3.03;1.30;;;18.10;50.20;;;;;;5106517;28;20169;-60
2021/03/05 08:19:14;;;;;;;1.70;1.42;;;18.00;50.30;;;;;;5106355;28;20181;-60
2021/03/05 08:21:53;;;;;;;4.07;1.67;;;18.00;50.30;;;;;;5106427;28;20173;-62
2021/03/05 08:24:26;;;;;;;2.35;1.52;;;18.00;50.10;;;;;;5106066;28;20668;-61
2021/03/05 08:27:14;;;;;;;2.40;1.67;;;18.10;50.10;;;;;;5088348;28;20208;-60
2021/03/05 08:30:03;;;;;;;3.70;1.40;;;18.10;50.10;;;;;;5106284;28;20223;-56
2021/03/05 08:32:34;;;;;;;3.95;1.67;;;18.10;50.20;;;;;;5104920;28;20238;-59
2021/03/05 08:35:02;;;;;;;1.70;1.35;;;18.20;50.20;;;;;;5106032;28;20173;-60
2021/03/05 08:37:35;;;;;;;3.35;1.50;;;18.20;50.20;;;;;;5106013;28;20189;-61
2021/03/05 08:40:10;;;;;;;1.98;1.20;;;18.20;50.20;;;;;;5105889;28;20173;-61
2021/03/05 08:42:42;;;;;;;2.65;1.60;;;18.20;50.30;;;;;;5106273;28;20211;-63
2021/03/05 08:45:20;;;;;;;4.35;1.52;;;18.20;50.90;;;;;;5106124;28;20170;-61
2021/03/05 08:47:56;;;;;;;2.75;1.50;;;18.20;50.30;;;;;;5105777;28;20224;-63
2021/03/05 08:50:32;;;;;;;2.83;1.40;;;18.20;50.40;;;;;;5105971;28;20169;-63
2021/03/05 08:53:02;;;;;;;2.78;1.42;;;18.20;50.40;;;;;;5088592;28;20622;-62
2021/03/05 08:55:31;;;;;;;3.60;1.50;;;18.20;50.50;;;;;;5105498;28;20165;-60
2021/03/05 08:57:57;;;;;;;1.48;1.20;;;18.20;50.50;;;;;;5105538;28;20169;-61
2021/03/05 09:00:27;;;;;;;2.00;1.52;;;18.30;50.60;;;;;;5105714;28;20192;-61
2021/03/05 09:02:53;;;;;;;2.17;1.20;;;18.30;50.60;;;;;;5105601;28;20177;-64
2021/03/05 09:05:26;;;;;;;1.92;1.20;;;18.30;50.70;;;;;;5070149;28;20189;-62
2021/03/05 09:07:55;;;;;;;2.58;1.33;;;18.30;50.70;;;;;;5105473;28;21024;-62
2021/03/05 09:10:23;;;;;;;1.58;1.08;;;18.30;50.70;;;;;;5105242;28;20172;-61
2021/03/05 09:12:56;;;;;;;3.00;1.35;;;18.30;50.70;;;;;;5086882;28;20184;-62
2021/03/05 09:15:23;;;;;;;2.22;1.50;;;18.30;50.70;;;;;;5105745;28;20175;-61
2021/03/05 09:17:50;;;;;;;1.83;1.30;;;18.30;50.70;;;;;;5105384;28;20177;-62
2021/03/05 09:20:15;;;;;;;2.70;1.10;;;18.30;50.70;;;;;;5105456;28;20173;-61
2021/03/05 09:22:41;;;;;;;3.50;1.63;;;18.30;50.60;;;;;;5105263;28;20523;-61
2021/03/05 09:25:09;;;;;;;2.97;1.27;;;18.30;50.30;;;;;;5105259;28;20171;-60
2021/03/05 09:27:37;;;;;;;3.72;1.33;;;18.30;50.00;;;;;;5104755;28;20205;-60
2021/03/05 09:30:20;;;;;;;2.50;1.10;;;18.30;49.80;;;;;;5104776;28;20176;-60
2021/03/05 09:32:52;;;;;;;3.25;1.33;;;18.30;49.50;;;;;;5104664;28;20627;-64
2021/03/05 09:35:32;;;;;;;4.07;1.60;;;18.30;49.10;;;;;;5104970;28;20222;-63
2021/03/05 09:37:58;;;;;;;4.03;1.20;;;18.30;48.80;;;;;;5104756;28;20251;-61
2021/03/05 09:40:23;;;;;;;3.03;1.38;;;18.30;48.70;;;;;;5086591;28;20283;-62
2021/03/05 09:42:53;;;;;;;2.08;1.13;;;18.30;48.80;;;;;;5104662;28;20214;-61
2021/03/05 09:45:37;;;;;;;1.40;1.00;;;18.40;48.80;;;;;;5104682;28;20175;-62
2021/03/05 09:48:04;;;;;;;2.50;1.48;;;18.40;48.80;;;;;;5104634;28;20184;-59
2021/03/05 09:50:30;;;;;;;4.25;1.27;;;18.40;48.90;;;;;;5104506;28;20271;-61
2021/03/05 09:52:56;;;;;;;2.90;1.08;;;18.40;48.90;;;;;;5103953;28;20260;-60
2021/03/05 09:55:28;;;;;;;3.15;1.50;;;18.40;48.90;;;;;;5104226;28;20173;-63
2021/03/05 09:57:54;;;;;;;3.10;1.20;;;18.50;49.00;;;;;;5104307;28;20199;-60
2021/03/05 10:00:30;;;;;;;1.83;1.17;;;18.50;49.00;;;;;;5086026;28;20165;-64
2021/03/05 10:03:05;;;;;;;2.10;1.48;;;18.50;49.00;;;;;;5104760;28;20194;-61
2021/03/05 10:05:31;;;;;;;5.15;1.40;;;18.50;49.10;;;;;;5104572;28;20181;-61
2021/03/05 10:07:57;;;;;;;2.90;1.13;;;18.50;49.00;;;;;;5104728;28;20197;-62
2021/03/05 10:10:23;;;;;;;2.35;1.00;;;18.60;49.10;;;;;;5104246;28;20612;-62
2021/03/05 10:12:54;;;;;;;1.77;1.10;;;18.60;49.10;;;;;;5086196;28;21010;-61
2021/03/05 10:15:20;;;;;;;2.28;1.20;;;18.60;49.10;;;;;;5104495;28;20175;-61
2021/03/05 10:17:46;;;;;;;4.50;1.52;;;18.60;49.10;;;;;;5104560;28;20173;-63
2021/03/05 10:20:12;;;;;;;2.75;1.42;;;18.60;49.10;;;;;;5104101;28;20169;-62
2021/03/05 10:22:37;;;;;;;4.68;1.08;;;18.60;49.10;;;;;;5104294;28;20173;-61
2021/03/05 10:25:04;;;;;;;1.90;1.20;;;18.60;49.10;;;;;;5104041;28;20181;-60
2021/03/05 10:27:40;;;;;;;5.97;1.70;;;18.60;49.10;;;;;;5104063;28;20208;-60
2021/03/05 10:30:07;;;;;;;2.88;0.93;;;18.60;49.10;;;;;;5086458;28;20581;-64
2021/03/05 10:32:43;;;;;;;2.10;1.00;;;18.60;49.10;;;;;;5086627;28;20175;-65
2021/03/05 10:35:13;;;;;;;1.92;1.08;;;18.60;48.10;;;;;;5104217;28;20312;-59
2021/03/05 10:37:38;;;;;;;2.40;0.95;;;18.60;47.50;;;;;;5103576;28;21017;-60
2021/03/05 10:40:05;;;;;;;2.50;1.00;;;18.60;47.60;;;;;;5104211;28;20169;-64
2021/03/05 10:42:31;;;;;;;2.25;0.98;;;18.60;47.80;;;;;;5104115;28;20179;-62
2021/03/05 10:44:57;;;;;;;3.55;1.13;;;18.60;48.00;;;;;;5104325;28;20178;-62
2021/03/05 10:47:23;;;;;;;3.40;0.70;;;18.70;48.10;;;;;;5103849;28;20200;-64
2021/03/05 10:49:49;;;;;;;3.95;0.88;;;18.70;48.20;;;;;;5068896;28;20181;-62
2021/03/05 10:52:16;;;;;;;1.42;1.10;;;18.70;48.30;;;;;;5103785;28;20173;-64
2021/03/05 10:54:43;;;;;;;2.25;1.00;;;18.80;48.40;;;;;;5103829;28;20174;-63
2021/03/05 10:57:09;;;;;;;3.33;1.05;;;18.80;48.40;;;;;;5103096;28;20598;-63
2021/03/05 10:59:35;;;;;;;1.73;1.20;;;18.80;48.40;;;;;;5102649;28;20204;-63
2021/03/05 11:02:00;;;;;;;2.25;0.85;;;18.80;48.50;;;;;;5103208;28;20205;-62
2021/03/05 11:04:26;;;;;;;2.00;0.98;;;18.80;48.50;;;;;;5084775;28;20246;-63
2021/03/05 11:06:52;;;;;;;1.65;1.00;;;18.80;48.60;;;;;;5084724;28;20216;-61
2021/03/05 11:09:18;;;;;;;2.00;0.80;;;18.90;48.70;;;;;;5103195;28;20247;-63
2021/03/05 11:11:44;;;;;;;2.80;1.02;;;18.90;48.70;;;;;;5085033;28;20984;-61
2021/03/05 11:14:10;;;;;;;2.38;1.10;;;18.90;48.80;;;;;;5106503;28;20212;-63
2021/03/05 11:16:36;;;;;;;1.15;1.02;;;18.90;48.90;;;;;;5106641;28;20687;-64
2021/03/05 11:19:01;;;;;;;1.80;0.85;;;18.90;48.90;;;;;;5088423;28;20177;-63
2021/03/05 11:21:27;;;;;;;1.83;1.20;;;19.00;49.00;;;;;;5088306;28;20214;-64
2021/03/05 11:23:54;;;;;;;1.13;0.85;;;18.90;49.00;;;;;;5088347;28;20173;-64
2021/03/05 11:26:20;;;;;;;1.45;0.90;;;18.90;49.00;;;;;;5106084;28;20200;-63
2021/03/05 11:28:46;;;;;;;1.00;0.80;;;19.00;49.10;;;;;;5071478;28;20173;-63
2021/03/05 11:31:11;;;;;;;3.15;0.80;;;19.00;49.10;;;;;;5106321;28;20181;-62
2021/03/05 11:33:39;;;;;;;0.82;0.60;;;19.00;49.10;;;;;;5106192;28;20627;-62
2021/03/05 11:36:04;;;;;;;1.67;0.85;;;19.00;49.10;;;;;;5106232;28;21075;-64
2021/03/05 11:38:30;;;;;;;1.23;0.88;;;19.00;49.00;;;;;;5106487;28;20264;-63
2021/03/05 11:40:56;;;;;;;2.00;0.68;;;19.00;48.40;;;;;;5107086;28;20180;-62
2021/03/05 11:43:21;;;;;;;1.08;0.90;;;19.00;48.40;;;;;;5107089;28;20264;-64
2021/03/05 11:45:47;;;;;;;1.40;0.85;;;19.10;48.50;;;;;;5106978;28;20677;-63
2021/03/05 11:48:12;;;;;;;1.17;1.00;;;19.10;48.50;;;;;;5106726;28;20212;-63
2021/03/05 11:50:38;;;;;;;1.85;0.80;;;19.10;48.50;;;;;;5106864;28;20176;-65
2021/03/05 11:53:03;;;;;;;1.63;0.82;;;19.10;48.50;;;;;;5106983;28;20522;-62
2021/03/05 11:55:32;;;;;;;1.35;0.82;;;19.10;47.40;;;;;;5106845;28;20222;-65
2021/03/05 11:58:01;;;;;;;2.05;0.95;;;19.00;47.00;;;;;;5106853;28;20177;-63
2021/03/05 12:00:28;;;;;;;1.58;0.75;;;19.00;46.40;;;;;;5106408;28;20586;-60
2021/03/05 12:02:54;;;;;;;2.30;0.93;;;19.00;46.00;;;;;;5106720;28;20199;-59
2021/03/05 12:05:20;;;;;;;6.55;1.15;;;19.00;46.40;;;;;;5106541;28;20223;-60
2021/03/05 12:07:46;;;;;;;5.10;0.90;;;19.00;46.50;;;;;;5105993;28;20225;-61
2021/03/05 12:10:12;;;;;;;2.38;0.65;;;19.10;46.70;;;;;;5106628;28;20602;-59
2021/03/05 12:12:38;;;;;;;2.95;0.80;;;19.10;46.30;;;;;;5106020;28;20617;-64
2021/03/05 12:15:04;;;;;;;4.43;0.80;;;19.10;46.30;;;;;;5088460;28;20173;-63
2021/03/05 12:17:30;;;;;;;1.65;0.68;;;19.10;46.10;;;;;;5105930;28;20631;-64
2021/03/05 12:19:56;;;;;;;3.33;0.80;;;19.10;46.50;;;;;;5106034;28;20176;-63
2021/03/05 12:22:21;;;;;;;2.45;0.70;;;19.10;46.60;;;;;;5106127;28;20180;-63
2021/03/05 12:24:47;;;;;;;2.85;0.77;;;19.10;46.80;;;;;;5087664;28;20691;-65
2021/03/05 12:27:12;;;;;;;3.60;0.88;;;19.10;46.90;;;;;;5105966;28;20568;-62
2021/03/05 12:29:38;;;;;;;1.65;0.60;;;19.10;46.90;;;;;;5106065;28;20169;-63
2021/03/05 12:32:04;;;;;;;1.40;0.77;;;19.10;46.90;;;;;;5106285;28;20623;-67
2021/03/05 12:34:30;;;;;;;2.55;0.77;;;19.10;46.20;;;;;;5106169;28;20184;-64
2021/03/05 12:36:55;;;;;;;2.03;0.70;;;19.00;45.60;;;;;;5105967;28;20165;-65
2021/03/05 12:39:21;;;;;;;3.17;0.82;;;19.00;45.40;;;;;;5105677;27;20183;-64
2021/03/05 12:41:46;;;;;;;1.42;0.70;;;19.00;45.10;;;;;;5114600;27;20644;-63
2021/03/05 12:44:12;;;;;;;0.50;0.50;;;19.00;45.10;;;;;;5117850;27;20176;-65
2021/03/05 12:46:37;;;;;;;1.15;0.50;;;19.00;45.10;;;;;;5126510;27;20232;-63
2021/03/05 12:49:03;;;;;;;3.17;0.80;;;19.00;45.00;;;;;;5108775;27;20177;-64
2021/03/05 12:51:29;;;;;;;1.88;0.70;;;19.00;45.00;;;;;;5105656;28;20165;-64